KHYA

Barnstable Municipal-Boardman / Polando Field Airport

Hyannis, Massachusetts, USA
METAR KHYA 172056Z 14006KT 10SM CLR 02/M04 A3034 RMK AO2 SLP276 T00171044 53001
Observed Flight Rules
Feb-17 @ 20:56 UTC (35 minutes ago) Visual Flight Rules
Wind Visibility Clouds
140° at 6 knots 10 miles
  • Clear skies
Temperatures Readings
Current 2°C / 36°F
Dewpoint -4°C / 25°F
Humidity 65%
Altimeter 30.34" Hg
Pressure 1027.6 hPa
Elevation 22
METAR KHYA 172056Z 14006KT 10SM CLR 02/M04 A3034 RMK AO2 SLP276 T00171044 53001
Observed Flight Rules
Feb-17 @ 20:56 UTC
(35 minutes ago)
VFR
Wind Visibility
140° at 6 knots 10 miles
Clouds
  • Clear skies
Temperature Dewpoint
2°C / 36°F -4°C / 25°F
Humidity Altimeter Pressure
65% 30.34" Hg 1027.6 hPa